Time;durP1;ratioP1;P1;durP2;ratioP2;P2;SDS_P1;SDS_P2;PMS_P1;PMS_P2;Temp;Humidity;BMP_temperature;BMP_pressure;BME280_temperature;BME280_humidity;BME280_pressure;Samples;Min_cycle;Max_cycle;Signal;HPM_P1;HPM_P2
2022/08/13 00:01:40;;;;;;;6.97;5.10;;;;;;;21.68;81.27;94241.97;5012730;28;20273;-62
2022/08/13 00:04:15;;;;;;;5.22;4.50;;;;;;;21.58;80.29;94249.38;5012730;28;20233;-59
2022/08/13 00:09:09;;;;;;;4.53;3.90;;;;;;;21.25;80.12;94254.69;5030580;28;20627;-63
2022/08/13 00:14:29;;;;;;;4.40;3.53;;;;;;;20.98;80.68;94240.22;5030437;28;20197;-61
2022/08/13 00:16:55;;;;;;;4.35;3.95;;;;;;;20.92;81.19;94228.91;5031085;28;20593;-61
2022/08/13 00:19:26;;;;;;;4.57;4.18;;;;;;;20.88;82.42;94211.44;5013348;28;20225;-62
2022/08/13 00:21:54;;;;;;;4.55;4.13;;;;;;;20.74;83.68;94189.22;5012523;28;20322;-60
2022/08/13 00:24:20;;;;;;;4.78;4.28;;;;;;;20.62;84.87;94175.31;5012264;28;20281;-63
2022/08/13 00:26:46;;;;;;;4.38;3.97;;;;;;;20.53;85.93;94155.88;5030724;28;20245;-62
2022/08/13 00:29:12;;;;;;;4.63;4.22;;;;;;;20.56;86.53;94160.63;5032092;28;20174;-62
2022/08/13 00:31:39;;;;;;;4.80;4.40;;;;;;;20.55;86.90;94156.47;5034157;28;20229;-61
2022/08/13 00:34:05;;;;;;;4.60;4.10;;;;;;;20.54;87.30;94157.47;5033527;28;20571;-62
2022/08/13 00:36:32;;;;;;;6.38;4.70;;;;;;;20.62;87.28;94160.63;5034151;28;20210;-62
2022/08/13 00:38:58;;;;;;;4.63;4.22;;;;;;;20.59;87.91;94149.88;5033962;28;20218;-63
2022/08/13 00:41:39;;;;;;;4.32;3.92;;;;;;;20.51;88.58;94152.69;5016079;28;20222;-63
2022/08/13 00:44:08;;;;;;;4.32;3.92;;;;;;;20.60;88.62;94154.06;5033554;28;20181;-62
2022/08/13 00:46:35;;;;;;;4.82;4.43;;;;;;;20.54;89.07;94147.13;5033917;28;20209;-63
2022/08/13 00:49:03;;;;;;;5.18;4.38;;;;;;;20.49;89.82;94152.09;5033344;28;20185;-64
2022/08/13 00:51:31;;;;;;;5.32;4.38;;;;;;;20.59;89.76;94158.44;5033444;28;20220;-63
2022/08/13 00:54:01;;;;;;;6.30;4.45;;;;;;;20.70;89.43;94167.34;5015747;28;20292;-61
2022/08/13 00:56:28;;;;;;;7.53;4.35;;;;;;;20.78;89.28;94167.13;5015742;28;20210;-63
2022/08/13 00:58:56;;;;;;;4.88;4.47;;;;;;;20.76;89.09;94171.72;5015050;28;20210;-59
2022/08/13 01:01:25;;;;;;;5.32;4.57;;;;;;;20.65;89.94;94167.16;5033420;28;20305;-63
2022/08/13 01:03:51;;;;;;;9.13;5.03;;;;;;;20.55;90.54;94166.78;5033829;28;20198;-62
2022/08/13 01:06:20;;;;;;;5.97;4.80;;;;;;;20.46;91.58;94148.13;5033341;28;20252;-60
2022/08/13 01:08:52;;;;;;;5.45;4.95;;;;;;;20.40;92.36;94148.16;5033622;28;20196;-61
2022/08/13 01:11:19;;;;;;;5.38;4.78;;;;;;;20.32;93.14;94143.22;5033584;28;20214;-63
2022/08/13 01:13:46;;;;;;;5.68;4.70;;;;;;;20.42;92.64;94161.66;5032707;28;20251;-63
2022/08/13 01:16:14;;;;;;;5.18;4.78;;;;;;;20.36;93.34;94157.31;5032462;28;20297;-61
2022/08/13 01:18:51;;;;;;;7.82;5.22;;;;;;;20.45;92.71;94171.56;5015572;28;20232;-61
2022/08/13 01:21:20;;;;;;;5.55;5.00;;;;;;;20.32;93.55;94171.59;5015405;28;20242;-62
2022/08/13 01:23:48;;;;;;;6.47;4.90;;;;;;;20.21;94.23;94161.88;5014887;28;20190;-63
2022/08/13 01:26:16;;;;;;;5.57;4.82;;;;;;;20.15;94.96;94166.03;5015225;28;20253;-62
2022/08/13 01:28:44;;;;;;;5.53;4.85;;;;;;;20.16;94.42;94167.59;5032866;28;20193;-63
2022/08/13 01:31:13;;;;;;;5.90;5.30;;;;;;;20.27;94.20;94179.16;5014648;28;20564;-63
2022/08/13 01:33:43;;;;;;;5.55;5.05;;;;;;;20.36;93.71;94186.47;5032446;28;20186;-62
2022/08/13 01:36:11;;;;;;;5.90;4.18;;;;;;;20.38;93.41;94181.91;5014891;28;20594;-66
2022/08/13 01:38:39;;;;;;;5.10;4.70;;;;;;;20.41;92.81;94193.63;5032943;28;20206;-64
2022/08/13 01:41:08;;;;;;;6.35;5.07;;;;;;;20.28;94.11;94165.25;5031599;28;20580;-63
2022/08/13 01:43:38;;;;;;;5.38;4.88;;;;;;;20.38;93.82;94181.13;5014610;28;20277;-62
2022/08/13 01:46:06;;;;;;;5.38;4.88;;;;;;;20.43;91.99;94196.81;5032855;28;20233;-60
2022/08/13 01:51:24;;;;;;;5.68;5.07;;;;;;;20.42;91.97;94184.91;5032493;28;20291;-63
2022/08/13 01:53:58;;;;;;;6.70;4.63;;;;;;;20.39;92.02;94185.28;5014589;28;20190;-62
2022/08/13 01:56:24;;;;;;;5.45;4.57;;;;;;;20.36;92.53;94186.47;5032634;28;20218;-63
2022/08/13 01:58:52;;;;;;;5.80;4.85;;;;;;;20.39;92.70;94180.94;5032856;28;20202;-62
2022/08/13 02:01:18;;;;;;;6.85;4.80;;;;;;;20.56;91.46;94200.16;5032237;28;20348;-62
2022/08/13 02:03:48;;;;;;;6.00;4.65;;;;;;;20.53;90.51;94190.25;5032141;28;20183;-63
2022/08/13 02:06:14;;;;;;;7.65;4.15;;;;;;;20.55;88.61;94215.88;5032377;28;20210;-62
2022/08/13 02:08:42;;;;;;;6.05;4.80;;;;;;;20.43;89.32;94196.81;5032145;28;20183;-62
2022/08/13 02:11:08;;;;;;;5.20;4.70;;;;;;;20.41;89.08;94198.78;5032149;28;20213;-62
2022/08/13 02:13:34;;;;;;;5.07;4.47;;;;;;;20.16;91.30;94170.19;5032071;28;20205;-62
2022/08/13 02:16:00;;;;;;;4.45;4.07;;;;;;;20.24;91.60;94176.97;5031862;28;20290;-62
2022/08/13 02:18:26;;;;;;;7.60;4.38;;;;;;;20.28;91.91;94178.94;5031833;28;20297;-62
2022/08/13 02:20:58;;;;;;;6.15;4.28;;;;;;;20.36;90.39;94201.19;5031583;28;20241;-63
2022/08/13 02:23:28;;;;;;;7.60;4.80;;;;;;;20.36;90.28;94190.88;5031630;28;20337;-62
2022/08/13 02:25:55;;;;;;;4.68;4.22;;;;;;;20.47;89.48;94210.91;5014571;28;20210;-61
2022/08/13 02:28:21;;;;;;;5.32;4.40;;;;;;;20.33;90.65;94194.63;5013993;28;20278;-63
2022/08/13 02:30:50;;;;;;;6.35;4.30;;;;;;;20.38;90.50;94189.66;5014348;28;20218;-59
2022/08/13 02:33:16;;;;;;;4.88;4.40;;;;;;;20.28;91.52;94178.16;5014949;28;20190;-63
2022/08/13 02:35:43;;;;;;;5.78;4.60;;;;;;;20.28;91.24;94180.75;5031735;28;20210;-62
2022/08/13 02:38:11;;;;;;;5.57;4.38;;;;;;;20.28;91.79;94183.34;5031842;28;20220;-60
2022/08/13 02:43:24;;;;;;;5.63;5.13;;;;;;;20.43;90.98;94191.63;5032494;28;20251;-62
2022/08/13 02:45:53;;;;;;;5.25;4.75;;;;;;;20.27;91.37;94172.19;5014161;28;20230;-63
2022/08/13 02:48:20;;;;;;;5.15;4.65;;;;;;;20.35;91.44;94178.94;5014237;28;20197;-61
2022/08/13 02:50:49;;;;;;;6.18;4.30;;;;;;;20.29;91.33;94177.16;5031806;28;20607;-60
2022/08/13 02:53:14;;;;;;;4.97;4.50;;;;;;;20.22;91.67;94176.38;5031816;28;20186;-62
2022/08/13 02:55:44;;;;;;;5.30;4.80;;;;;;;20.02;92.76;94161.66;5014145;28;20325;-62
2022/08/13 02:58:09;;;;;;;5.88;4.50;;;;;;;20.05;92.88;94153.53;5013508;28;20368;-63
2022/08/13 03:00:36;;;;;;;5.03;4.60;;;;;;;20.08;92.95;94163.44;5031408;28;20230;-60
2022/08/13 03:03:04;;;;;;;5.38;4.88;;;;;;;20.24;91.56;94182.16;5013793;28;20186;-63
2022/08/13 03:05:30;;;;;;;5.18;4.68;;;;;;;20.29;90.64;94195.22;5014540;28;20620;-63
2022/08/13 03:07:57;;;;;;;5.88;4.68;;;;;;;20.29;89.56;94205.56;5013497;28;20308;-63
2022/08/13 03:10:25;;;;;;;5.50;4.38;;;;;;;20.22;90.93;94184.13;5040013;22;20214;-62
2022/08/13 03:12:58;;;;;;;4.90;4.40;;;;;;;20.31;90.97;94188.06;5050206;28;20213;-63
2022/08/13 03:15:26;;;;;;;5.28;4.78;;;;;;;20.30;90.93;94189.88;5051212;28;20553;-62
2022/08/13 03:17:52;;;;;;;5.75;4.78;;;;;;;20.23;91.10;94181.34;5033008;28;20224;-63
2022/08/13 03:20:20;;;;;;;6.03;4.57;;;;;;;20.38;90.97;94194.03;5050997;28;20193;-60
2022/08/13 03:22:56;;;;;;;4.72;4.32;;;;;;;20.43;90.66;94196.81;5050976;28;20269;-63
2022/08/13 03:25:25;;;;;;;4.38;4.00;;;;;;;20.72;88.45;94222.19;5050521;28;20204;-62
2022/08/13 03:27:53;;;;;;;7.00;4.25;;;;;;;20.67;88.79;94220.22;5050797;28;20284;-63
2022/08/13 03:30:21;;;;;;;4.93;4.47;;;;;;;20.63;89.27;94210.47;5051126;28;20182;-62
2022/08/13 03:32:49;;;;;;;5.65;4.38;;;;;;;20.66;89.58;94212.69;5050994;28;20189;-63
2022/08/13 03:35:20;;;;;;;5.63;4.65;;;;;;;20.67;89.75;94209.09;5051038;28;20209;-65
2022/08/13 03:37:54;;;;;;;6.53;4.40;;;;;;;20.62;89.25;94214.88;5050887;28;20197;-62
2022/08/13 03:41:00;;;;;;;5.40;4.90;;;;;;;20.61;88.90;94221.03;5032919;28;20658;-63
2022/08/13 03:43:14;;;;;;;5.68;5.05;;;;;;;20.55;90.10;94203.75;5051375;28;20200;-63
2022/08/13 03:45:41;;;;;;;6.78;5.32;;;;;;;20.55;90.21;94200.38;5056983;22;20221;-64
2022/08/13 03:48:07;;;;;;;5.65;4.63;;;;;;;20.36;91.73;94181.31;5032985;28;20191;-62
2022/08/13 03:50:40;;;;;;;6.07;4.45;;;;;;;20.53;91.33;94202.34;5050234;28;20216;-63
2022/08/13 03:53:07;;;;;;;5.68;5.05;;;;;;;20.59;90.26;94215.25;5051241;28;20191;-64
2022/08/13 03:55:34;;;;;;;5.18;4.65;;;;;;;20.66;89.97;94223.81;5050756;28;20228;-59
2022/08/13 03:58:00;;;;;;;6.07;4.68;;;;;;;20.58;90.76;94210.31;5050725;28;20275;-61
2022/08/13 04:00:28;;;;;;;5.43;4.93;;;;;;;20.45;92.37;94180.13;5050367;28;20209;-63
2022/08/13 04:03:00;;;;;;;8.00;5.63;;;;;;;20.62;90.93;94201.97;5050952;28;20201;-62
2022/08/13 04:05:26;;;;;;;5.30;4.80;;;;;;;20.51;91.84;94188.84;5050544;28;20185;-60
2022/08/13 04:07:52;;;;;;;5.80;5.10;;;;;;;20.38;93.27;94178.56;5032001;28;20193;-60
2022/08/13 04:10:19;;;;;;;5.70;5.15;;;;;;;20.17;94.91;94153.72;5049917;28;20197;-60
2022/08/13 04:12:46;;;;;;;5.20;4.70;;;;;;;20.42;93.72;94179.75;5050319;28;20193;-62
2022/08/13 04:15:12;;;;;;;5.80;5.05;;;;;;;20.41;93.42;94183.31;5032504;28;20667;-61
2022/08/13 04:17:40;;;;;;;5.43;4.93;;;;;;;20.39;93.95;94167.22;5032298;28;20197;-61
2022/08/13 04:20:09;;;;;;;7.93;5.50;;;;;;;20.37;94.60;94170.00;5051166;28;20193;-60
2022/08/13 04:22:36;;;;;;;5.45;4.93;;;;;;;20.32;97.77;94151.72;5050070;28;20217;-63
2022/08/13 04:25:04;;;;;;;6.95;5.40;;;;;;;20.56;93.73;94196.81;5050515;28;20193;-61
2022/08/13 04:27:32;;;;;;;6.97;5.00;;;;;;;20.62;92.81;94204.53;5050058;28;20205;-64
2022/08/13 04:29:58;;;;;;;5.65;4.90;;;;;;;20.51;93.10;94199.19;5050228;28;20624;-62
2022/08/13 04:32:25;;;;;;;5.47;4.97;;;;;;;20.27;96.68;94166.25;5050081;28;20255;-61
2022/08/13 04:34:51;;;;;;;5.55;5.00;;;;;;;20.52;95.14;94183.47;5032112;28;20200;-62
2022/08/13 04:37:17;;;;;;;7.57;4.60;;;;;;;20.64;92.99;94205.13;5050247;28;20209;-59
2022/08/13 04:39:43;;;;;;;5.55;4.85;;;;;;;20.67;93.08;94193.59;5031563;28;20278;-62
2022/08/13 04:42:11;;;;;;;5.55;5.03;;;;;;;20.58;93.07;94197.41;5051691;28;20288;-63
2022/08/13 04:44:37;;;;;;;6.45;5.85;;;;;;;20.55;93.86;94172.75;5049970;28;20197;-64
2022/08/13 04:47:05;;;;;;;8.88;5.10;;;;;;;20.54;94.51;94172.97;5049388;28;20209;-61
2022/08/13 04:49:34;;;;;;;8.90;5.50;;;;;;;20.55;95.29;94161.63;5050132;28;20196;-62
2022/08/13 04:51:59;;;;;;;6.88;6.28;;;;;;;20.46;96.07;94168.78;5049977;28;20562;-62
2022/08/13 04:54:28;;;;;;;7.75;5.18;;;;;;;20.45;96.68;94163.81;5049594;28;20197;-61
2022/08/13 04:56:55;;;;;;;9.68;5.50;;;;;;;20.56;95.47;94170.97;5049784;28;20197;-61
2022/08/13 04:59:22;;;;;;;6.38;5.78;;;;;;;20.61;94.98;94187.44;5032491;28;20256;-62
2022/08/13 05:01:48;;;;;;;8.20;5.80;;;;;;;20.63;95.12;94187.22;5050208;28;20202;-62
2022/08/13 05:04:15;;;;;;;5.93;5.30;;;;;;;20.69;95.26;94178.69;5048333;28;20201;-59
2022/08/13 05:06:42;;;;;;;6.45;5.55;;;;;;;20.66;95.14;94185.06;5049575;28;20255;-59
2022/08/13 05:09:08;;;;;;;6.63;5.70;;;;;;;20.70;96.40;94169.94;5050005;28;20666;-61
2022/08/13 05:11:35;;;;;;;7.80;5.82;;;;;;;20.69;96.86;94166.56;5049288;28;20201;-62
2022/08/13 05:14:01;;;;;;;5.50;5.00;;;;;;;20.76;97.32;94164.75;5039828;23;20380;-64
2022/08/13 05:16:27;;;;;;;10.38;6.38;;;;;;;21.08;94.50;94198.47;5050691;28;20205;-64
2022/08/13 05:18:54;;;;;;;7.03;6.28;;;;;;;20.96;93.55;94193.13;5052824;28;20214;-61
2022/08/13 05:21:22;;;;;;;11.15;6.15;;;;;;;21.08;94.30;94188.13;5035268;28;20209;-61
2022/08/13 05:23:53;;;;;;;7.95;5.38;;;;;;;20.99;95.30;94166.84;5052883;28;20189;-63
2022/08/13 05:26:21;;;;;;;6.07;5.45;;;;;;;21.14;94.88;94182.94;5052730;28;20197;-62
2022/08/13 05:28:49;;;;;;;7.68;5.57;;;;;;;21.33;93.46;94205.31;5035369;28;20633;-63
2022/08/13 05:31:17;;;;;;;5.82;5.22;;;;;;;21.43;92.48;94213.41;5052675;28;20213;-64
2022/08/13 05:33:44;;;;;;;6.88;5.22;;;;;;;21.37;92.67;94209.06;5052748;28;20194;-60
2022/08/13 05:36:11;;;;;;;9.45;6.10;;;;;;;21.34;92.81;94212.09;5036581;23;20257;-60
2022/08/13 05:38:37;;;;;;;6.00;5.38;;;;;;;21.25;93.47;94192.63;5015284;28;20730;-64
2022/08/13 05:41:06;;;;;;;6.72;5.60;;;;;;;21.26;93.85;94204.56;5033176;28;20214;-60
2022/08/13 05:43:35;;;;;;;6.40;5.45;;;;;;;21.33;92.76;94215.66;5033406;28;20229;-60
2022/08/13 05:46:05;;;;;;;6.68;5.53;;;;;;;21.33;93.86;94199.38;5032160;28;20600;-62
2022/08/13 05:48:35;;;;;;;5.85;5.30;;;;;;;21.52;95.33;94188.91;5032383;28;20297;-62
2022/08/13 05:51:04;;;;;;;7.15;6.22;;;;;;;21.69;91.32;94244.31;5046761;22;20256;-59
2022/08/13 05:53:36;;;;;;;6.78;5.68;;;;;;;21.83;90.09;94247.69;5033857;28;20288;-59
2022/08/13 05:56:03;;;;;;;6.70;5.93;;;;;;;21.83;92.07;94215.81;5052202;28;20232;-63
2022/08/13 05:58:29;;;;;;;8.98;6.40;;;;;;;21.70;91.98;94217.47;5051761;28;20209;-63
2022/08/13 06:03:41;;;;;;;8.68;5.97;;;;;;;21.53;94.84;94187.13;5052565;28;20196;-63
2022/08/13 06:06:09;;;;;;;8.00;6.47;;;;;;;21.47;96.21;94167.25;5051748;28;20217;-63
2022/08/13 06:08:38;;;;;;;9.10;6.82;;;;;;;21.12;97.30;94164.25;5051739;28;20235;-63
2022/08/13 06:11:15;;;;;;;7.47;6.07;;;;;;;21.05;96.72;94165.28;5051767;28;20210;-63
2022/08/13 06:13:44;;;;;;;7.03;6.32;;;;;;;21.23;97.49;94161.00;5051785;28;20197;-62
2022/08/13 06:16:12;;;;;;;7.00;6.30;;;;;;;21.24;97.38;94175.53;5051629;28;20217;-63
2022/08/13 06:18:43;;;;;;;8.50;6.70;;;;;;;21.40;96.99;94177.63;5033808;28;20216;-62
2022/08/13 06:21:12;;;;;;;8.68;6.32;;;;;;;21.47;93.26;94227.53;5033699;28;20306;-62
2022/08/13 06:23:39;;;;;;;8.30;7.00;;;;;;;21.44;91.44;94240.88;5033477;28;20201;-62
2022/08/13 06:26:07;;;;;;;6.22;5.60;;;;;;;21.51;90.66;94243.44;5051036;28;20217;-63
2022/08/13 06:28:34;;;;;;;7.30;6.13;;;;;;;21.26;91.21;94235.59;5033293;28;20284;-63
2022/08/13 06:31:07;;;;;;;8.60;6.63;;;;;;;21.32;91.28;94234.78;5051145;28;20250;-63
2022/08/13 06:33:35;;;;;;;6.70;6.10;;;;;;;21.37;90.90;94236.75;5051047;28;20186;-64
2022/08/13 06:36:05;;;;;;;19.73;7.40;;;;;;;21.03;93.10;94200.88;5033112;28;20245;-63
2022/08/13 06:38:50;;;;;;;10.40;6.50;;;;;;;21.04;92.67;94205.03;5036458;23;20639;-63
2022/08/13 06:41:19;;;;;;;7.43;6.53;;;;;;;21.35;91.55;94229.16;5055587;22;20232;-63
2022/08/13 06:43:48;;;;;;;7.43;6.72;;;;;;;21.26;94.36;94188.25;5051607;28;20193;-62
2022/08/13 06:46:16;;;;;;;7.13;6.40;;;;;;;21.32;94.74;94188.22;5050866;28;20282;-63
2022/08/13 06:48:42;;;;;;;9.27;6.22;;;;;;;21.24;94.76;94180.69;5050754;28;20261;-63
2022/08/13 06:51:12;;;;;;;7.40;6.28;;;;;;;21.16;93.46;94200.81;5050573;28;20202;-63
2022/08/13 06:53:41;;;;;;;7.65;5.72;;;;;;;21.25;94.17;94191.84;5051099;28;20267;-62
2022/08/13 06:56:14;;;;;;;7.25;6.20;;;;;;;21.41;93.06;94205.06;5050990;28;20248;-62
2022/08/13 06:58:43;;;;;;;6.85;6.20;;;;;;;21.31;89.09;94268.59;5050781;28;20212;-63
2022/08/13 07:01:12;;;;;;;8.75;6.55;;;;;;;21.37;89.03;94252.28;5051071;28;20213;-63
2022/08/13 07:03:40;;;;;;;7.53;5.53;;;;;;;21.68;89.11;94257.47;5032700;28;20213;-63
2022/08/13 07:06:26;;;;;;;11.38;6.28;;;;;;;21.63;87.97;94278.03;5016587;28;20217;-64
2022/08/13 07:08:57;;;;;;;10.43;8.02;;;;;;;21.59;89.24;94251.75;5050855;28;20192;-64
2022/08/13 07:11:24;;;;;;;8.52;7.68;;;;;;;21.49;91.71;94215.19;5050644;28;20208;-64
2022/08/13 07:14:00;;;;;;;8.75;6.93;;;;;;;21.84;89.47;94249.25;5050864;28;20229;-63
2022/08/13 07:16:30;;;;;;;11.27;7.47;;;;;;;22.05;88.18;94274.03;5032402;28;20262;-63
2022/08/13 07:18:58;;;;;;;11.77;7.85;;;;;;;22.05;88.21;94267.06;5050701;28;20209;-63
2022/08/13 07:21:25;;;;;;;8.15;7.32;;;;;;;21.94;90.48;94235.88;5032448;28;20237;-63
2022/08/13 07:23:53;;;;;;;7.88;7.03;;;;;;;22.17;90.64;94236.91;5050547;28;20201;-63
2022/08/13 07:26:21;;;;;;;12.70;11.35;;;;;;;22.25;92.02;94210.75;5032333;28;20291;-62
2022/08/13 07:28:49;;;;;;;14.18;10.05;;;;;;;22.14;92.74;94202.88;5050195;28;20200;-63
2022/08/13 07:31:19;;;;;;;18.38;15.20;;;;;;;22.15;93.24;94207.03;5050270;28;20209;-63
2022/08/13 07:33:51;;;;;;;12.85;10.40;;;;;;;22.17;92.06;94218.78;5050309;28;20196;-64
2022/08/13 07:36:19;;;;;;;11.73;8.38;;;;;;;22.08;91.57;94227.78;5050361;28;20209;-63
2022/08/13 07:38:47;;;;;;;11.18;8.20;;;;;;;22.22;89.39;94254.41;5031274;28;20306;-63
2022/08/13 07:41:13;;;;;;;11.88;8.35;;;;;;;22.40;88.02;94272.59;5050031;28;20688;-69
2022/08/13 07:43:43;;;;;;;9.15;7.72;;;;;;;22.25;87.87;94269.50;5050114;28;20217;-63
2022/08/13 07:46:15;;;;;;;11.23;7.68;;;;;;;22.17;88.92;94262.00;5050193;28;20292;-66
2022/08/13 07:48:52;;;;;;;15.52;9.20;;;;;;;22.23;86.82;94284.47;5050393;28;20193;-63
2022/08/13 07:51:20;;;;;;;8.43;7.53;;;;;;;22.65;85.66;94304.50;5049827;28;20209;-67
2022/08/13 07:53:52;;;;;;;8.98;7.20;;;;;;;22.79;84.05;94326.72;5049858;28;20273;-63
2022/08/13 07:56:28;;;;;;;7.05;6.28;;;;;;;22.75;85.96;94273.72;5032311;28;20209;-62
2022/08/13 07:59:01;;;;;;;7.40;5.97;;;;;;;23.20;83.94;94310.59;5031744;28;20209;-64
2022/08/13 08:01:28;;;;;;;9.70;7.72;;;;;;;23.25;81.70;94334.88;5049968;28;20251;-64
2022/08/13 08:03:57;;;;;;;8.80;7.72;;;;;;;23.51;81.17;94343.44;5049661;28;20189;-63
2022/08/13 08:06:24;;;;;;;9.18;8.23;;;;;;;23.69;80.17;94354.63;5031604;28;20216;-62
2022/08/13 08:08:53;;;;;;;10.25;6.70;;;;;;;23.83;78.44;94382.00;5049720;28;20220;-62
2022/08/13 08:14:06;;;;;;;9.07;7.50;;;;;;;23.07;79.64;94339.22;5049960;28;20204;-62
2022/08/13 08:16:34;;;;;;;11.50;8.35;;;;;;;23.34;77.80;94382.13;5050108;28;20209;-63
2022/08/13 08:19:01;;;;;;;12.82;8.38;;;;;;;23.55;77.13;94388.72;5031555;28;20293;-64
2022/08/13 08:21:29;;;;;;;14.77;8.25;;;;;;;23.56;78.10;94354.75;5031452;28;20213;-62
2022/08/13 08:23:58;;;;;;;12.30;8.93;;;;;;;23.60;78.15;94360.28;5032012;28;20193;-71
2022/08/13 08:26:33;;;;;;;13.68;7.47;;;;;;;23.58;77.88;94357.13;5049464;28;20201;-62
2022/08/13 08:29:03;;;;;;;11.75;6.82;;;;;;;23.86;76.71;94383.34;5031515;28;20214;-63
2022/08/13 08:31:31;;;;;;;13.05;7.15;;;;;;;23.90;76.54;94371.53;5031383;28;20235;-62
2022/08/13 08:34:00;;;;;;;10.43;8.35;;;;;;;23.38;76.08;94380.69;5049527;28;20585;-64
2022/08/13 08:36:29;;;;;;;12.88;8.55;;;;;;;23.11;77.36;94351.56;5048997;28;20295;-64
2022/08/13 08:44:32;;;;;;;11.27;7.40;;;;;;;23.95;75.57;94375.06;5049721;28;20263;-62
2022/08/13 08:47:00;;;;;;;9.25;7.00;;;;;;;24.07;75.12;94378.56;5049160;28;20236;-62
2022/08/13 08:49:30;;;;;;;9.10;7.80;;;;;;;23.81;76.37;94347.69;5049489;28;20185;-62
2022/08/13 08:51:58;;;;;;;8.38;7.57;;;;;;;23.65;76.90;94343.06;5034873;28;20210;-62
2022/08/13 08:54:27;;;;;;;7.18;6.25;;;;;;;23.86;75.30;94371.19;5052799;28;20194;-59
2022/08/13 08:56:54;;;;;;;8.38;7.55;;;;;;;24.14;74.48;94386.25;5052407;28;20207;-59
2022/08/13 08:59:30;;;;;;;10.65;7.18;;;;;;;24.16;74.83;94368.63;5052359;28;20249;-61
2022/08/13 09:01:57;;;;;;;9.32;7.63;;;;;;;24.33;73.17;94392.19;5052215;28;20237;-59
2022/08/13 09:04:28;;;;;;;8.75;7.20;;;;;;;24.26;73.29;94399.31;5052512;28;20295;-59
2022/08/13 09:06:58;;;;;;;8.88;7.40;;;;;;;24.11;72.25;94415.28;5034733;28;20242;-62
2022/08/13 09:09:27;;;;;;;10.25;7.75;;;;;;;23.74;72.53;94398.06;5052322;28;20190;-62
2022/08/13 09:11:56;;;;;;;12.23;7.13;;;;;;;23.80;73.84;94374.63;5034555;28;20296;-64
2022/08/13 09:14:32;;;;;;;10.95;7.57;;;;;;;23.83;73.37;94370.81;5034484;28;20221;-63
2022/08/13 09:17:04;;;;;;;11.57;8.02;;;;;;;23.28;74.95;94341.44;5052345;28;20224;-63
2022/08/13 09:19:31;;;;;;;8.00;7.20;;;;;;;23.18;76.02;94326.38;5052262;28;20237;-66
2022/08/13 09:21:58;;;;;;;9.27;7.72;;;;;;;23.16;77.47;94297.25;5051971;28;20216;-63
2022/08/13 09:24:24;;;;;;;11.75;7.13;;;;;;;23.30;76.58;94318.66;5034287;28;20277;-63
2022/08/13 09:26:52;;;;;;;11.30;6.60;;;;;;;23.38;75.77;94328.78;5051169;28;20213;-64
2022/08/13 09:29:23;;;;;;;10.52;7.05;;;;;;;23.39;75.76;94325.19;5052107;28;20729;-64
2022/08/13 09:31:54;;;;;;;10.38;7.72;;;;;;;23.18;76.46;94317.78;5051813;28;20201;-64
2022/08/13 09:34:20;;;;;;;7.43;6.38;;;;;;;23.31;76.95;94305.50;5034211;28;20220;-59
2022/08/13 09:36:46;;;;;;;10.48;8.00;;;;;;;23.30;76.95;94300.50;5052210;28;20679;-63
2022/08/13 09:39:49;;;;;;;9.50;8.25;;;;;;;23.11;77.27;94294.50;5067527;22;20248;-59
2022/08/13 09:42:24;;;;;;;12.63;8.75;;;;;;;23.08;77.02;94300.13;5051820;28;20311;-59
2022/08/13 09:44:58;;;;;;;9.43;7.32;;;;;;;23.24;78.04;94288.41;5051989;28;20181;-64
2022/08/13 09:47:25;;;;;;;8.88;7.50;;;;;;;23.24;77.37;94303.97;5033626;28;20316;-63
2022/08/13 09:49:51;;;;;;;9.43;8.05;;;;;;;23.24;76.55;94316.94;5052143;28;20189;-64
2022/08/13 09:52:20;;;;;;;9.45;8.15;;;;;;;23.21;76.65;94314.78;5051804;28;20229;-65
2022/08/13 09:54:47;;;;;;;10.85;8.48;;;;;;;23.05;77.10;94297.16;5052404;28;20178;-62
2022/08/13 09:57:20;;;;;;;8.77;7.72;;;;;;;23.22;77.69;94282.63;5050773;28;20611;-65
2022/08/13 09:59:49;;;;;;;11.00;7.82;;;;;;;23.48;77.88;94284.16;5051510;28;20579;-64
2022/08/13 10:02:15;;;;;;;9.50;8.48;;;;;;;23.62;76.73;94312.34;5050778;28;20710;-63
2022/08/13 10:04:42;;;;;;;9.40;7.57;;;;;;;23.82;76.04;94325.09;5051501;28;20200;-63
2022/08/13 10:07:11;;;;;;;11.98;8.13;;;;;;;23.62;76.30;94309.75;5051325;28;20216;-63
2022/08/13 10:09:38;;;;;;;12.32;8.65;;;;;;;23.69;75.65;94333.84;5034025;28;20747;-64
2022/08/13 10:12:06;;;;;;;11.38;7.70;;;;;;;23.71;76.38;94302.47;5051501;28;20262;-63
2022/08/13 10:14:34;;;;;;;12.60;7.85;;;;;;;23.31;77.77;94278.75;5033498;28;20197;-64
2022/08/13 10:17:01;;;;;;;9.30;8.25;;;;;;;23.06;79.37;94237.31;5033046;28;20283;-63
2022/08/13 10:19:27;;;;;;;10.98;8.27;;;;;;;23.04;80.86;94218.59;5051189;28;20216;-67
2022/08/13 10:21:53;;;;;;;9.60;7.82;;;;;;;22.91;81.40;94208.34;5033292;28;20267;-60
2022/08/13 10:24:19;;;;;;;9.00;7.45;;;;;;;22.73;82.03;94203.16;5051478;28;20202;-63
2022/08/13 10:26:45;;;;;;;11.50;8.10;;;;;;;22.79;82.69;94191.91;5051026;28;20193;-62
2022/08/13 10:29:11;;;;;;;10.93;8.13;;;;;;;22.76;84.26;94171.63;5033021;28;20250;-63
2022/08/13 10:31:38;;;;;;;12.70;8.95;;;;;;;22.37;88.05;94118.38;5050998;28;20269;-63
2022/08/13 10:34:05;;;;;;;11.32;10.20;;;;;;;22.15;90.70;94100.88;5051088;28;20217;-63
2022/08/13 10:36:32;;;;;;;12.02;9.60;;;;;;;22.10;93.22;94091.13;5050892;28;20202;-63
2022/08/13 10:38:59;;;;;;;11.50;10.25;;;;;;;21.94;94.02;94109.03;5032801;28;20217;-64
2022/08/13 10:41:24;;;;;;;13.52;9.55;;;;;;;21.81;96.43;94112.53;5050978;28;20274;-63
2022/08/13 10:43:59;;;;;;;12.18;9.43;;;;;;;21.77;97.10;94114.69;5032789;28;20197;-61
2022/08/13 10:46:31;;;;;;;8.27;7.47;;;;;;;21.38;95.11;94122.72;5050900;28;20262;-62
2022/08/13 10:48:58;;;;;;;7.35;6.65;;;;;;;21.50;92.23;94144.34;5032933;28;20201;-62
2022/08/13 10:51:26;;;;;;;8.88;7.90;;;;;;;21.56;93.53;94124.59;5059004;22;20367;-63
2022/08/13 10:54:00;;;;;;;10.88;8.00;;;;;;;21.61;95.85;94119.59;5033012;28;20234;-63
2022/08/13 10:56:30;;;;;;;9.73;8.73;;;;;;;21.66;96.25;94119.75;5032583;28;20695;-64
2022/08/13 10:58:58;;;;;;;16.88;9.70;;;;;;;21.43;99.52;94122.13;5050703;28;20218;-61
2022/08/13 11:01:26;;;;;;;10.65;9.52;;;;;;;21.60;99.39;94129.16;5050710;28;20325;-63
2022/08/13 11:04:01;;;;;;;14.82;9.57;;;;;;;21.60;98.41;94139.50;5032455;28;20687;-63
2022/08/13 11:06:28;;;;;;;13.27;9.73;;;;;;;21.52;100.00;94134.59;5050244;28;20245;-64
2022/08/13 11:08:57;;;;;;;11.32;9.10;;;;;;;21.59;100.00;94139.72;5050259;28;20239;-63
2022/08/13 11:11:25;;;;;;;15.57;8.80;;;;;;;21.45;100.00;94141.56;5050148;28;20296;-64
2022/08/13 11:13:51;;;;;;;11.50;9.70;;;;;;;21.20;100.00;94138.16;5050385;28;20266;-63
2022/08/13 11:19:00;;;;;;;8.45;7.63;;;;;;;21.50;98.53;94148.72;5050147;28;20225;-64
2022/08/13 11:21:27;;;;;;;10.57;8.48;;;;;;;21.51;98.26;94120.06;5050236;28;20206;-63
2022/08/13 11:23:56;;;;;;;9.00;6.95;;;;;;;21.83;100.00;94112.31;5031865;28;20533;-61
2022/08/13 11:26:23;;;;;;;8.40;6.95;;;;;;;22.26;95.04;94157.16;5032266;28;20221;-61
2022/08/13 11:28:49;;;;;;;7.70;6.93;;;;;;;22.47;91.27;94178.25;5032041;28;20312;-61
2022/08/13 11:31:16;;;;;;;9.18;6.07;;;;;;;22.34;89.02;94185.38;5049960;28;20201;-62
2022/08/13 11:33:42;;;;;;;7.15;6.45;;;;;;;22.37;87.77;94188.31;5050168;28;20201;-60
2022/08/13 11:36:09;;;;;;;10.60;7.07;;;;;;;22.35;91.26;94145.50;5049846;28;20262;-62
2022/08/13 11:38:36;;;;;;;10.32;8.20;;;;;;;22.42;93.37;94141.81;5049867;28;20297;-61
2022/08/13 11:41:02;;;;;;;8.55;7.55;;;;;;;22.33;95.30;94116.44;5049652;28;20224;-65
2022/08/13 11:43:30;;;;;;;10.40;7.68;;;;;;;22.18;96.67;94113.41;5049450;28;20185;-61
2022/08/13 11:45:57;;;;;;;8.30;6.93;;;;;;;22.02;97.13;94117.31;5063986;22;20260;-63
2022/08/13 11:48:25;;;;;;;8.63;7.72;;;;;;;21.88;95.04;94138.31;5032889;28;20327;-64
2022/08/13 11:50:55;;;;;;;10.00;9.10;;;;;;;21.82;93.88;94157.28;5025839;28;20222;-63
2022/08/13 11:53:23;;;;;;;9.15;8.30;;;;;;;21.87;92.91;94168.63;5029811;28;20196;-63
2022/08/13 11:55:49;;;;;;;8.93;8.05;;;;;;;21.67;88.14;94227.44;5042426;22;20775;-63
2022/08/13 11:58:16;;;;;;;9.85;8.82;;;;;;;21.59;89.74;94187.06;5446568;22;20188;-62
2022/08/13 12:00:42;;;;;;;10.07;8.75;;;;;;;21.53;90.00;94180.13;5049536;28;20675;-62
2022/08/13 12:03:09;;;;;;;9.82;8.93;;;;;;;21.47;92.86;94142.16;5032146;28;20196;-62